createdAt,value
2023-04-10T00:00:57.149Z,102014.84
2023-04-10T00:03:25.526Z,102014.13
2023-04-10T00:05:54.766Z,102002.03
2023-04-10T00:08:24.194Z,102007.22
2023-04-10T00:10:53.265Z,102008.06
2023-04-10T00:13:21.429Z,102006.19
2023-04-10T00:15:49.638Z,102009.88
2023-04-10T00:18:17.366Z,102012.41
2023-04-10T00:20:45.102Z,102003.53
2023-04-10T00:23:12.880Z,101998.25
2023-04-10T00:25:42.011Z,102000.16
2023-04-10T00:28:09.739Z,102001.19
2023-04-10T00:30:37.389Z,102004.13
2023-04-10T00:33:05.833Z,101997.88
2023-04-10T00:35:34.443Z,101983.16
2023-04-10T00:38:02.165Z,101979.94
2023-04-10T00:40:30.409Z,101977.47
2023-04-10T00:42:59.570Z,101978.63
2023-04-10T00:45:27.502Z,101979.47
2023-04-10T00:47:55.770Z,101976.72
2023-04-10T00:50:23.723Z,101970.78
2023-04-10T00:52:51.800Z,101962.97
2023-04-10T00:55:19.575Z,101968.44
2023-04-10T00:57:47.746Z,101963.34
2023-04-10T01:00:17.851Z,101971.16
2023-04-10T01:02:45.872Z,101958.91
2023-04-10T01:05:14.217Z,101960.59
2023-04-10T01:07:59.062Z,101949.28
2023-04-10T01:10:30.912Z,101937.94
2023-04-10T01:13:05.729Z,101936.25
2023-04-10T01:15:39.873Z,101941.03
2023-04-10T01:18:13.997Z,101935.13
2023-04-10T01:20:43.128Z,101939.44
2023-04-10T01:23:44.159Z,101935.00
2023-04-10T01:26:12.819Z,101933.22
2023-04-10T01:28:50.602Z,101926.13
2023-04-10T01:31:20.830Z,101923.88
2023-04-10T01:33:52.193Z,101925.22
2023-04-10T01:36:23.124Z,101928.69
2023-04-10T01:38:52.134Z,101930.56
2023-04-10T01:41:20.840Z,101926.22
2023-04-10T01:43:52.047Z,101926.31
2023-04-10T01:46:20.582Z,101921.25
2023-04-10T01:48:48.609Z,101924.06
2023-04-10T01:51:16.592Z,101924.06
2023-04-10T01:53:45.384Z,101922.34
2023-04-10T01:56:13.934Z,101921.41
2023-04-10T01:58:41.852Z,101922.34
2023-04-10T02:01:19.353Z,101918.03
2023-04-10T02:03:54.428Z,101909.25
2023-04-10T02:06:27.735Z,101902.75
2023-04-10T02:08:58.550Z,101909.50
2023-04-10T02:11:33.144Z,101906.13
2023-04-10T02:14:03.309Z,101901.78
2023-04-10T02:16:33.151Z,101913.19
2023-04-10T02:19:02.047Z,101911.59
2023-04-10T02:21:29.974Z,101919.78
2023-04-10T02:23:58.558Z,101913.66
2023-04-10T02:26:26.268Z,101918.19
2023-04-10T02:28:54.025Z,101918.00
2023-04-10T02:31:21.775Z,101910.06
2023-04-10T02:33:51.055Z,101921.31
2023-04-10T02:36:18.829Z,101904.59
2023-04-10T02:38:46.552Z,101899.41
2023-04-10T02:41:14.285Z,101906.50
2023-04-10T02:43:41.965Z,101899.50
2023-04-10T02:46:09.604Z,101897.81
2023-04-10T02:48:37.299Z,101897.81
2023-04-10T02:51:07.550Z,101883.94
2023-04-10T02:53:35.454Z,101885.56
2023-04-10T02:56:03.580Z,101880.44
2023-04-10T02:58:31.644Z,101879.44
2023-04-10T03:00:59.616Z,101876.03
2023-04-10T03:05:55.055Z,101871.97
2023-04-10T03:08:24.181Z,101873.00
2023-04-10T03:10:51.866Z,101873.09
2023-04-10T03:13:19.490Z,101868.00
2023-04-10T03:15:47.796Z,101868.00
2023-04-10T03:18:15.601Z,101876.09
2023-04-10T03:20:45.118Z,101870.81
2023-04-10T03:23:13.120Z,101870.81
2023-04-10T03:25:42.368Z,101872.59
2023-04-10T03:28:10.346Z,101866.56
2023-04-10T03:30:38.093Z,101862.34
2023-04-10T03:33:05.886Z,101858.75
2023-04-10T03:35:33.590Z,101859.69
2023-04-10T03:38:01.321Z,101871.19
2023-04-10T03:40:29.038Z,101863.28
2023-04-10T03:42:58.252Z,101865.91
2023-04-10T03:45:25.926Z,101859.78
2023-04-10T03:47:53.784Z,101863.28
2023-04-10T03:50:21.702Z,101863.34
2023-04-10T03:52:49.696Z,101860.66
2023-04-10T03:55:19.011Z,101870.25
2023-04-10T03:57:46.925Z,101850.25
2023-04-10T04:00:16.982Z,101854.69
2023-04-10T04:02:44.921Z,101855.63
2023-04-10T04:05:13.052Z,101854.78
2023-04-10T04:07:40.769Z,101859.31
2023-04-10T04:10:09.327Z,101866.28
2023-04-10T04:12:37.067Z,101855.88
2023-04-10T04:15:05.425Z,101849.84
2023-04-10T04:17:34.580Z,101846.28
2023-04-10T04:20:02.299Z,101842.78
2023-04-10T04:22:29.936Z,101850.72
2023-04-10T04:24:57.620Z,101848.91
2023-04-10T04:27:25.364Z,101849.09
2023-04-10T04:29:53.006Z,101839.41
2023-04-10T04:32:20.849Z,101843.09
2023-04-10T04:34:49.890Z,101840.50
2023-04-10T04:37:17.558Z,101839.84
2023-04-10T04:39:45.338Z,101838.16
2023-04-10T04:42:13.036Z,101834.78
2023-04-10T04:44:40.706Z,101847.13
2023-04-10T04:47:08.375Z,101835.69
2023-04-10T04:49:36.010Z,101831.44
2023-04-10T04:52:05.631Z,101831.56
2023-04-10T04:54:33.311Z,101837.94
2023-04-10T04:57:01.629Z,101837.19
2023-04-10T04:59:29.365Z,101832.94
2023-04-10T05:01:57.182Z,101831.31
2023-04-10T05:04:25.147Z,101827.06
2023-04-10T05:06:52.893Z,101821.91
2023-04-10T05:09:21.967Z,101828.09
2023-04-10T05:11:50.523Z,101821.13
2023-04-10T05:14:18.280Z,101821.97
2023-04-10T05:16:45.989Z,101817.53
2023-04-10T05:19:13.648Z,101806.28
2023-04-10T05:21:41.313Z,101810.63
2023-04-10T05:24:09.401Z,101807.53
2023-04-10T05:26:38.454Z,101809.22
2023-04-10T05:29:06.174Z,101817.22
2023-04-10T05:31:34.039Z,101813.66
2023-04-10T05:34:01.869Z,101812.72
2023-04-10T05:36:29.557Z,101821.47
2023-04-10T05:38:57.207Z,101821.38
2023-04-10T05:41:24.951Z,101817.88
2023-04-10T05:43:54.019Z,101824.84
2023-04-10T05:46:22.414Z,101817.69
2023-04-10T05:48:50.098Z,101816.00
2023-04-10T05:51:17.812Z,101815.84
2023-04-10T05:53:45.697Z,101813.03
2023-04-10T05:56:13.340Z,101804.78
2023-04-10T05:58:41.047Z,101792.53
2023-04-10T06:01:11.399Z,101794.97
2023-04-10T06:03:39.118Z,101793.88
2023-04-10T06:06:08.797Z,101789.34
2023-04-10T06:08:36.542Z,101788.03
2023-04-10T06:11:04.605Z,101791.63
2023-04-10T06:13:32.476Z,101776.06
2023-04-10T06:16:00.982Z,101785.78
2023-04-10T06:18:30.324Z,101782.00
2023-04-10T06:21:01.693Z,101788.63
2023-04-10T06:23:29.562Z,101786.56
2023-04-10T06:25:57.640Z,101788.16
2023-04-10T06:28:25.398Z,101787.97
2023-04-10T06:30:53.133Z,101779.69
2023-04-10T06:33:20.956Z,101784.50
2023-04-10T06:35:50.823Z,101784.19
2023-04-10T06:38:18.606Z,101781.28
2023-04-10T06:40:46.326Z,101775.69
2023-04-10T06:43:14.154Z,101772.22
2023-04-10T06:45:41.783Z,101766.75
2023-04-10T06:48:09.466Z,101760.31
2023-04-10T06:50:37.177Z,101752.41
2023-04-10T06:53:06.267Z,101753.91
2023-04-10T06:55:34.027Z,101748.25
2023-04-10T07:00:29.731Z,101745.97
2023-04-10T07:02:57.613Z,101741.22
2023-04-10T07:05:25.410Z,101734.59
2023-04-10T07:07:53.321Z,101722.41
2023-04-10T07:10:22.444Z,101725.28
2023-04-10T07:12:50.330Z,101717.81
2023-04-10T07:15:18.133Z,101726.28
2023-04-10T07:17:46.009Z,101718.13
2023-04-10T07:20:13.942Z,101714.66
2023-04-10T07:22:41.627Z,101707.47
2023-04-10T07:25:10.412Z,101713.31
2023-04-10T07:27:39.430Z,101697.97
2023-04-10T07:30:08.329Z,101714.63
2023-04-10T07:32:37.673Z,101698.31
2023-04-10T07:35:06.212Z,101686.38
2023-04-10T07:37:33.961Z,101678.69
2023-04-10T07:40:02.461Z,101685.31
2023-04-10T07:42:31.574Z,101670.72
2023-04-10T07:45:00.615Z,101672.22
2023-04-10T07:47:28.362Z,101655.28
2023-04-10T07:49:56.672Z,101662.38
2023-04-10T07:52:24.465Z,101659.91
2023-04-10T07:54:52.222Z,101647.22
2023-04-10T07:57:19.924Z,101634.28
2023-04-10T07:59:47.586Z,101639.75
2023-04-10T08:02:16.843Z,101614.09
2023-04-10T08:04:44.746Z,101625.00
2023-04-10T08:07:12.627Z,101623.59
2023-04-10T08:09:40.328Z,101609.78
2023-04-10T08:12:07.983Z,101606.47
2023-04-10T08:14:35.794Z,101605.88
2023-04-10T08:17:03.527Z,101603.78
2023-04-10T08:19:32.665Z,101601.66
2023-04-10T08:22:00.297Z,101583.47
2023-04-10T08:24:27.926Z,101580.22
2023-04-10T08:26:55.543Z,101584.47
2023-04-10T08:31:51.886Z,101579.94
2023-04-10T08:34:20.382Z,101580.53
2023-04-10T08:36:49.643Z,101585.72
2023-04-10T08:39:17.330Z,101587.53
2023-04-10T08:41:45.024Z,101575.00
2023-04-10T08:44:13.106Z,101575.97
2023-04-10T08:46:43.925Z,101575.13
2023-04-10T08:49:12.706Z,101570.44
2023-04-10T08:51:42.908Z,101571.16
2023-04-10T08:54:14.983Z,101572.59
2023-04-10T08:56:44.019Z,101579.50
2023-04-10T08:59:11.850Z,101587.19
2023-04-10T09:01:41.180Z,101570.94
2023-04-10T09:04:09.054Z,101568.53
2023-04-10T09:06:36.760Z,101573.63
2023-04-10T09:09:04.691Z,101570.59
2023-04-10T09:12:01.394Z,101576.94
2023-04-10T09:14:30.540Z,101562.25
2023-04-10T09:17:13.217Z,101568.19
2023-04-10T09:19:41.088Z,101565.41
2023-04-10T09:22:09.017Z,101545.34
2023-04-10T09:24:38.215Z,101545.56
2023-04-10T09:27:07.681Z,101541.47
2023-04-10T09:29:44.571Z,101526.97
2023-04-10T09:32:12.782Z,101535.66
2023-04-10T09:35:05.837Z,101527.47
2023-04-10T09:37:33.762Z,101527.19
2023-04-10T09:40:01.854Z,101520.97
2023-04-10T09:42:36.416Z,101520.13
2023-04-10T09:45:04.980Z,101514.28
2023-04-10T09:47:33.487Z,101516.19
2023-04-10T09:50:01.954Z,101517.34
2023-04-10T09:52:30.713Z,101514.75
2023-04-10T09:55:00.307Z,101517.72
2023-04-10T09:57:29.560Z,101512.47
2023-04-10T10:00:02.212Z,101509.84
2023-04-10T10:02:31.395Z,101501.97
2023-04-10T10:05:01.490Z,101485.47
2023-04-10T10:07:30.860Z,101493.44
2023-04-10T10:09:59.245Z,101479.59
2023-04-10T10:12:30.990Z,101457.25
2023-04-10T10:15:03.204Z,101470.06
2023-04-10T10:17:39.466Z,101463.63
2023-04-10T10:20:09.935Z,101447.00
2023-04-10T10:22:38.030Z,101444.38
2023-04-10T10:25:06.345Z,101435.84
2023-04-10T10:27:38.336Z,101421.72
2023-04-10T10:30:25.214Z,101424.66
2023-04-10T10:32:57.494Z,101420.19
2023-04-10T10:35:27.965Z,101418.38
2023-04-10T10:37:57.669Z,101407.72
2023-04-10T10:40:29.098Z,101395.94
2023-04-10T10:43:02.702Z,101398.22
2023-04-10T10:45:37.619Z,101395.00
2023-04-10T10:48:06.887Z,101388.84
2023-04-10T10:50:53.120Z,101382.81
2023-04-10T10:53:33.829Z,101379.19
2023-04-10T10:56:34.424Z,101384.34
2023-04-10T10:59:02.741Z,101380.31
2023-04-10T11:01:31.961Z,101377.22
2023-04-10T11:04:01.265Z,101372.72
2023-04-10T11:06:54.640Z,101373.56
2023-04-10T11:09:45.890Z,101370.22
2023-04-10T11:12:13.660Z,101364.44
2023-04-10T11:14:42.132Z,101368.94
2023-04-10T11:17:11.621Z,101363.22
2023-04-10T11:19:59.217Z,101357.59
2023-04-10T11:22:27.792Z,101359.00
2023-04-10T11:24:57.663Z,101352.16
2023-04-10T11:27:52.910Z,101343.88
2023-04-10T11:30:28.084Z,101334.63
2023-04-10T11:32:57.589Z,101338.53
2023-04-10T11:35:26.858Z,101331.09
2023-04-10T11:38:09.674Z,101319.16
2023-04-10T11:40:37.381Z,101323.50
2023-04-10T11:43:15.079Z,101302.19
2023-04-10T11:45:42.760Z,101301.50
2023-04-10T11:48:11.872Z,101299.41
2023-04-10T11:50:39.552Z,101301.50
2023-04-10T11:53:19.643Z,101298.28
2023-04-10T11:55:47.770Z,101293.22
2023-04-10T11:58:26.132Z,101284.94
2023-04-10T12:00:58.650Z,101276.66
2023-04-10T12:03:35.728Z,101281.00
2023-04-10T12:06:06.406Z,101281.00
2023-04-10T12:08:34.619Z,101278.88
2023-04-10T12:11:02.416Z,101268.09
2023-04-10T12:13:30.808Z,101264.13
2023-04-10T12:16:04.717Z,101264.25
2023-04-10T12:18:34.268Z,101263.50
2023-04-10T12:21:02.269Z,101260.09
2023-04-10T12:23:30.890Z,101247.84
2023-04-10T12:26:13.624Z,101242.94
2023-04-10T12:28:42.150Z,101234.63
2023-04-10T12:31:10.457Z,101226.19
2023-04-10T12:33:40.592Z,101232.13
2023-04-10T12:36:21.237Z,101228.69
2023-04-10T12:38:48.983Z,101225.19
2023-04-10T12:41:23.453Z,101218.19
2023-04-10T12:43:52.482Z,101222.59
2023-04-10T12:46:29.132Z,101209.97
2023-04-10T12:48:58.281Z,101224.91
2023-04-10T12:51:46.768Z,101215.00
2023-04-10T12:54:28.996Z,101211.63
2023-04-10T12:56:57.717Z,101203.34
2023-04-10T12:59:26.451Z,101202.84
2023-04-10T13:01:54.447Z,101200.91
2023-04-10T13:04:24.253Z,101203.25
2023-04-10T13:06:53.175Z,101188.09
2023-04-10T13:09:21.281Z,101193.56
2023-04-10T13:11:51.029Z,101191.06
2023-04-10T13:14:19.747Z,101182.34
2023-04-10T13:16:47.530Z,101182.50
2023-04-10T13:19:15.220Z,101174.50
2023-04-10T13:21:44.367Z,101171.69
2023-04-10T13:24:12.589Z,101172.00
2023-04-10T13:26:40.869Z,101150.81
2023-04-10T13:29:08.494Z,101146.31
2023-04-10T13:31:36.247Z,101137.78
2023-04-10T13:34:03.953Z,101130.75
2023-04-10T13:36:32.607Z,101117.31
2023-04-10T13:39:01.791Z,101122.09
2023-04-10T13:41:29.372Z,101107.41
2023-04-10T13:43:57.169Z,101103.66
2023-04-10T13:46:25.550Z,101098.94
2023-04-10T13:48:53.297Z,101092.78
2023-04-10T13:51:20.957Z,101088.56
2023-04-10T13:53:48.580Z,101089.72
2023-04-10T13:56:17.624Z,101074.47
2023-04-10T13:58:46.817Z,101079.13
2023-04-10T14:01:14.576Z,101075.63
2023-04-10T14:03:42.439Z,101067.09
2023-04-10T14:06:10.333Z,101060.41
2023-04-10T14:08:38.073Z,101057.91
2023-04-10T14:11:06.034Z,101048.34
2023-04-10T14:13:35.059Z,101027.63
2023-04-10T14:16:04.074Z,101038.31
2023-04-10T14:18:31.777Z,101029.47
2023-04-10T14:20:59.432Z,101021.63
2023-04-10T14:23:27.155Z,101010.28
2023-04-10T14:25:54.908Z,100995.47
2023-04-10T14:28:22.612Z,101000.56
2023-04-10T14:30:52.600Z,100998.72
2023-04-10T14:33:20.625Z,101002.50
2023-04-10T14:35:48.866Z,100989.34
2023-04-10T14:38:16.829Z,100985.19
2023-04-10T14:40:45.776Z,100979.84
2023-04-10T14:43:13.444Z,100966.69
2023-04-10T14:45:41.111Z,100977.63
2023-04-10T14:48:11.051Z,100960.25
2023-04-10T14:50:38.900Z,100968.41
2023-04-10T14:53:09.565Z,100968.53
2023-04-10T14:55:37.828Z,100958.03
2023-04-10T14:58:06.725Z,100967.03
2023-04-10T15:00:34.604Z,100949.38
2023-04-10T15:03:02.517Z,100938.72
2023-04-10T15:05:31.618Z,100931.72
2023-04-10T15:07:59.369Z,100928.75
2023-04-10T15:10:27.112Z,100928.75
2023-04-10T15:12:54.747Z,100908.44
2023-04-10T15:15:22.533Z,100917.09
2023-04-10T15:17:50.545Z,100914.59
2023-04-10T15:20:18.368Z,100913.59
2023-04-10T15:22:48.227Z,100900.28
2023-04-10T15:25:16.168Z,100897.31
2023-04-10T15:27:43.868Z,100896.34
2023-04-10T15:30:12.643Z,100890.84
2023-04-10T15:32:40.348Z,100886.22
2023-04-10T15:35:09.347Z,100883.28
2023-04-10T15:37:37.580Z,100885.63
2023-04-10T15:40:07.761Z,100883.13
2023-04-10T15:42:35.836Z,100867.81
2023-04-10T15:45:03.779Z,100866.97
2023-04-10T15:47:31.455Z,100862.78
2023-04-10T15:49:59.252Z,100863.47
2023-04-10T15:52:29.213Z,100859.66
2023-04-10T15:54:56.904Z,100853.66
2023-04-10T15:57:26.057Z,100848.31
2023-04-10T15:59:53.838Z,100841.00
2023-04-10T16:02:21.720Z,100835.16
2023-04-10T16:04:49.795Z,100835.66
2023-04-10T16:07:17.697Z,100834.00
2023-04-10T16:09:46.182Z,100829.84
2023-04-10T16:12:13.990Z,100827.34
2023-04-10T16:14:43.054Z,100813.59
2023-04-10T16:17:10.804Z,100802.50
2023-04-10T16:19:38.513Z,100816.03
2023-04-10T16:22:06.272Z,100815.66
2023-04-10T16:24:33.908Z,100806.50
2023-04-10T16:27:02.401Z,100809.59
2023-04-10T16:29:30.116Z,100806.03
2023-04-10T16:31:59.228Z,100810.00
2023-04-10T16:34:26.943Z,100813.66
2023-04-10T16:36:54.623Z,100810.31
2023-04-10T16:39:22.371Z,100814.13
2023-04-10T16:41:50.071Z,100835.25
2023-04-10T16:44:17.732Z,100834.88
2023-04-10T16:46:45.532Z,100840.28
2023-04-10T16:49:14.792Z,100841.34
2023-04-10T16:51:42.463Z,100835.38
2023-04-10T16:54:10.108Z,100825.41
2023-04-10T16:56:37.804Z,100824.94
2023-04-10T16:59:05.538Z,100816.44
2023-04-10T17:01:35.127Z,100814.56
2023-04-10T17:04:02.920Z,100813.47
2023-04-10T17:06:32.450Z,100812.84
2023-04-10T17:09:00.300Z,100792.31
2023-04-10T17:11:28.350Z,100762.13
2023-04-10T17:13:56.090Z,100778.06
2023-04-10T17:16:23.839Z,100776.16
2023-04-10T17:18:51.596Z,100784.69
2023-04-10T17:21:19.202Z,100780.94
2023-04-10T17:23:48.819Z,100781.34
2023-04-10T17:26:17.557Z,100775.09
2023-04-10T17:28:46.496Z,100757.38
2023-04-10T17:31:14.806Z,100762.38
2023-04-10T17:33:42.900Z,100757.78
2023-04-10T17:36:12.270Z,100760.44
2023-04-10T17:38:41.027Z,100754.16
2023-04-10T17:41:10.712Z,100767.41
2023-04-10T17:43:38.383Z,100751.66
2023-04-10T17:46:06.716Z,100751.50
2023-04-10T17:48:34.633Z,100736.81
2023-04-10T17:51:06.245Z,100740.47
2023-04-10T17:53:33.971Z,100737.13
2023-04-10T17:56:01.665Z,100735.72
2023-04-10T17:58:30.836Z,100732.94
2023-04-10T18:00:58.520Z,100739.34
2023-04-10T18:03:26.367Z,100747.47
2023-04-10T18:05:54.197Z,100745.75
2023-04-10T18:08:21.871Z,100750.50
2023-04-10T18:10:49.607Z,100754.03
2023-04-10T18:13:17.264Z,100762.09
2023-04-10T18:15:46.379Z,100761.13
2023-04-10T18:18:14.310Z,100769.81
2023-04-10T18:20:42.031Z,100772.03
2023-04-10T18:23:09.746Z,100785.59
2023-04-10T18:25:37.499Z,100793.56
2023-04-10T18:28:14.502Z,100808.75
2023-04-10T18:30:43.713Z,100806.41
2023-04-10T18:33:14.080Z,100796.63
2023-04-10T18:35:42.079Z,100794.81
2023-04-10T18:38:09.815Z,100791.59
2023-04-10T18:40:37.898Z,100790.47
2023-04-10T18:43:05.637Z,100784.34
2023-04-10T18:45:34.392Z,100780.97
2023-04-10T18:48:02.410Z,100766.31
2023-04-10T18:50:31.591Z,100749.44
2023-04-10T18:52:59.259Z,100748.59
2023-04-10T18:55:27.050Z,100727.25
2023-04-10T18:57:54.767Z,100723.75
2023-04-10T19:00:22.817Z,100733.25
2023-04-10T19:02:50.767Z,100725.53
2023-04-10T19:05:18.533Z,100702.56
2023-04-10T19:08:00.556Z,100715.94
2023-04-10T19:10:31.199Z,100714.78
2023-04-10T19:12:58.869Z,100707.28
2023-04-10T19:15:26.529Z,100722.34
2023-04-10T19:17:54.700Z,100715.38
2023-04-10T19:20:49.931Z,100705.03
2023-04-10T19:23:12.950Z,100693.44
2023-04-10T19:25:41.042Z,100699.47
2023-04-10T19:28:08.777Z,100699.47
2023-04-10T19:30:36.503Z,100728.63
2023-04-10T19:33:04.213Z,100722.88
2023-04-10T19:35:32.025Z,100723.84
2023-04-10T19:37:59.809Z,100732.03
2023-04-10T19:40:31.171Z,100722.56
2023-04-10T19:43:00.446Z,100711.97
2023-04-10T19:45:29.283Z,100718.25
2023-04-10T19:47:57.638Z,100725.22
2023-04-10T19:50:25.418Z,100726.06
2023-04-10T19:52:53.129Z,100700.53
2023-04-10T19:55:21.087Z,100699.56
2023-04-10T19:57:50.531Z,100694.13
2023-04-10T20:00:19.049Z,100657.72
2023-04-10T20:02:46.816Z,100638.94
2023-04-10T20:05:14.815Z,100629.03
2023-04-10T20:07:42.577Z,100609.50
2023-04-10T20:10:10.757Z,100621.91
2023-04-10T20:12:38.502Z,100643.09
2023-04-10T20:15:09.221Z,100651.44
2023-04-10T20:17:38.575Z,100641.56
2023-04-10T20:20:07.354Z,100645.22
2023-04-10T20:22:35.016Z,100627.91
2023-04-10T20:25:02.908Z,100643.78
2023-04-10T20:27:30.658Z,100648.22
2023-04-10T20:29:58.337Z,100653.38
2023-04-10T20:32:27.585Z,100660.03
2023-04-10T20:34:55.248Z,100658.09
2023-04-10T20:37:22.976Z,100657.84
2023-04-10T20:39:51.830Z,100633.00
2023-04-10T20:42:19.556Z,100633.47
2023-04-10T20:44:47.263Z,100631.91
2023-04-10T20:47:14.980Z,100647.78
2023-04-10T20:49:44.184Z,100629.69
2023-04-10T20:52:11.965Z,100621.97
2023-04-10T20:54:39.704Z,100626.03
2023-04-10T20:57:07.389Z,100638.56
2023-04-10T20:59:36.008Z,100632.72
2023-04-10T21:02:03.925Z,100631.59
2023-04-10T21:04:32.586Z,100623.94
2023-04-10T21:07:01.659Z,100605.41
2023-04-10T21:09:29.462Z,100617.25
2023-04-10T21:11:57.726Z,100620.75
2023-04-10T21:14:25.432Z,100629.09
2023-04-10T21:16:53.250Z,100633.00
2023-04-10T21:19:21.032Z,100617.38
2023-04-10T21:21:48.756Z,100609.72
2023-04-10T21:24:17.922Z,100610.69
2023-04-10T21:26:45.770Z,100615.69
2023-04-10T21:29:13.646Z,100611.75
2023-04-10T21:31:41.377Z,100612.97
2023-04-10T21:34:09.120Z,100612.28
2023-04-10T21:36:36.784Z,100600.63
2023-04-10T21:39:08.892Z,100611.91
2023-04-10T21:41:38.236Z,100616.34
2023-04-10T21:44:06.242Z,100607.00
2023-04-10T21:46:34.480Z,100610.75
2023-04-10T21:49:02.424Z,100612.81
2023-04-10T21:51:30.159Z,100616.72
2023-04-10T21:53:57.913Z,100600.00
2023-04-10T21:56:25.872Z,100613.38
2023-04-10T21:58:55.227Z,100622.25
2023-04-10T22:01:23.038Z,100613.63
2023-04-10T22:03:50.868Z,100616.97
2023-04-10T22:06:18.661Z,100604.72
2023-04-10T22:08:46.900Z,100612.53
2023-04-10T22:11:14.548Z,100596.66
2023-04-10T22:13:42.171Z,100604.47
2023-04-10T22:16:11.387Z,100610.84
2023-04-10T22:18:39.155Z,100601.97
2023-04-10T22:21:07.765Z,100589.69
2023-04-10T22:23:35.497Z,100589.81
2023-04-10T22:26:03.136Z,100593.28
2023-04-10T22:28:30.826Z,100589.41
2023-04-10T22:30:58.661Z,100600.00
2023-04-10T22:33:28.028Z,100593.00
2023-04-10T22:35:55.731Z,100578.53
2023-04-10T22:38:23.530Z,100560.00
2023-04-10T22:40:51.267Z,100569.63
2023-04-10T22:43:19.062Z,100559.19
2023-04-10T22:45:46.795Z,100567.13
2023-04-10T22:48:14.513Z,100565.31
2023-04-10T22:50:43.567Z,100557.09
2023-04-10T22:53:12.094Z,100554.44
2023-04-10T22:55:40.005Z,100550.72
2023-04-10T22:58:08.089Z,100544.59
2023-04-10T23:00:35.751Z,100560.72
2023-04-10T23:03:03.618Z,100552.38
2023-04-10T23:05:32.928Z,100554.28
2023-04-10T23:08:02.153Z,100553.16
2023-04-10T23:10:29.864Z,100554.81
2023-04-10T23:12:57.461Z,100553.44
2023-04-10T23:15:25.159Z,100552.00
2023-04-10T23:17:52.892Z,100549.25
2023-04-10T23:20:20.856Z,100543.13
2023-04-10T23:22:48.579Z,100531.41
2023-04-10T23:25:17.733Z,100545.03
2023-04-10T23:27:45.476Z,100536.84
2023-04-10T23:30:13.322Z,100547.03
2023-04-10T23:32:41.038Z,100551.47
2023-04-10T23:35:09.253Z,100537.03
2023-04-10T23:37:36.987Z,100540.38
2023-04-10T23:40:05.125Z,100540.22
2023-04-10T23:42:34.263Z,100536.03
2023-04-10T23:45:01.917Z,100536.03
2023-04-10T23:47:29.701Z,100530.75
2023-04-10T23:49:57.406Z,100523.06
2023-04-10T23:52:25.238Z,100528.94
2023-04-10T23:54:52.934Z,100559.31
2023-04-10T23:57:20.703Z,100571.28
2023-04-10T23:59:49.983Z,100552.31
